Time;durP1;ratioP1;P1;durP2;ratioP2;P2;SDS_P1;SDS_P2;PMS_P1;PMS_P2;Temp;Humidity;BMP_temperature;BMP_pressure;BME280_temperature;BME280_humidity;BME280_pressure;Samples;Min_cycle;Max_cycle;Signal;HPM_P1;HPM_P2
2023/06/12 00:00:22;;;;;;;5.00;4.50;;;20.90;31.60;;;;;;5094938;28;20463;-67
2023/06/12 00:02:49;;;;;;;5.27;4.77;;;20.80;32.10;;;;;;5094478;28;20486;-65
2023/06/12 00:05:21;;;;;;;8.47;5.50;;;20.80;32.50;;;;;;5094082;28;20544;-66
2023/06/12 00:07:51;;;;;;;5.90;4.80;;;20.80;32.50;;;;;;5094447;28;20465;-66
2023/06/12 00:10:17;;;;;;;7.63;5.33;;;20.80;33.30;;;;;;5094455;28;20465;-66
2023/06/12 00:12:44;;;;;;;5.30;4.10;;;20.80;33.40;;;;;;5094186;28;20477;-65
2023/06/12 00:15:11;;;;;;;8.33;4.40;;;20.70;33.00;;;;;;5095273;28;20762;-66
2023/06/12 00:17:38;;;;;;;7.30;5.10;;;20.70;32.80;;;;;;5094765;28;20453;-65
2023/06/12 00:20:07;;;;;;;5.03;4.63;;;20.70;33.10;;;;;;5094655;28;20465;-66
2023/06/12 00:22:39;;;;;;;5.00;4.60;;;20.70;33.60;;;;;;5093408;28;20453;-66
2023/06/12 00:25:07;;;;;;;6.20;4.70;;;20.70;33.90;;;;;;5094540;28;20781;-66
2023/06/12 00:27:34;;;;;;;5.70;4.90;;;20.70;33.60;;;;;;5094374;28;20567;-65
2023/06/12 00:30:01;;;;;;;6.43;5.20;;;20.60;33.40;;;;;;5094471;28;20457;-67
2023/06/12 00:32:28;;;;;;;4.97;4.47;;;20.60;33.60;;;;;;5094649;28;20752;-65
2023/06/12 00:34:55;;;;;;;5.03;4.50;;;20.60;33.50;;;;;;5094537;28;20464;-65
2023/06/12 00:37:24;;;;;;;5.23;4.73;;;20.50;33.10;;;;;;5094799;28;20485;-65
2023/06/12 00:39:52;;;;;;;7.47;4.27;;;20.50;33.20;;;;;;5094667;28;20527;-66
2023/06/12 00:42:19;;;;;;;5.90;5.27;;;20.50;32.80;;;;;;5094329;28;20458;-66
2023/06/12 00:44:46;;;;;;;4.90;4.50;;;20.50;33.90;;;;;;5094533;28;20523;-66
2023/06/12 00:47:14;;;;;;;5.10;4.60;;;20.40;33.10;;;;;;5094231;28;20477;-66
2023/06/12 00:49:42;;;;;;;5.50;5.00;;;20.40;32.90;;;;;;5094682;28;20453;-67
2023/06/12 00:52:11;;;;;;;9.10;4.60;;;20.40;32.70;;;;;;5094220;28;20923;-66
2023/06/12 00:54:38;;;;;;;4.90;4.50;;;20.40;33.40;;;;;;5094950;28;20506;-66
2023/06/12 00:57:07;;;;;;;4.87;4.10;;;20.40;33.40;;;;;;5094786;28;20453;-66
2023/06/12 00:59:35;;;;;;;5.83;4.70;;;20.30;32.90;;;;;;5097193;28;20552;-66
2023/06/12 01:02:03;;;;;;;11.10;5.50;;;20.30;32.80;;;;;;5101450;28;20460;-66
2023/06/12 01:04:30;;;;;;;8.80;6.73;;;20.30;32.70;;;;;;5101376;28;20560;-65
2023/06/12 01:07:07;;;;;;;5.03;4.43;;;20.20;33.40;;;;;;5101126;28;20757;-66
2023/06/12 01:09:40;;;;;;;5.27;4.77;;;20.20;32.40;;;;;;5101376;28;20536;-66
2023/06/12 01:12:11;;;;;;;7.90;5.70;;;20.20;32.50;;;;;;5101041;28;20496;-66
2023/06/12 01:14:38;;;;;;;6.77;4.87;;;20.10;33.70;;;;;;5101262;28;20855;-65
2023/06/12 01:17:06;;;;;;;4.90;4.40;;;20.10;33.50;;;;;;5101178;28;20830;-65
2023/06/12 01:19:35;;;;;;;5.03;4.50;;;20.00;32.80;;;;;;5100958;28;20463;-66
2023/06/12 01:22:08;;;;;;;7.77;4.80;;;20.00;32.80;;;;;;5101436;28;20483;-66
2023/06/12 01:25:05;;;;;;;4.83;4.43;;;20.00;33.50;;;;;;5101021;28;20768;-66
2023/06/12 01:27:56;;;;;;;6.17;4.70;;;20.00;32.80;;;;;;5101277;28;20465;-66
2023/06/12 01:30:54;;;;;;;10.40;8.67;;;19.90;33.50;;;;;;5100632;28;20441;-66
2023/06/12 01:33:30;;;;;;;6.40;5.13;;;19.90;33.70;;;;;;5100002;28;20467;-66
2023/06/12 01:36:00;;;;;;;5.70;4.80;;;19.80;33.10;;;;;;5100652;28;20877;-66
2023/06/12 01:38:30;;;;;;;5.33;4.40;;;19.80;33.10;;;;;;5101189;28;20468;-66
2023/06/12 01:40:58;;;;;;;8.40;4.63;;;19.80;32.50;;;;;;5100830;28;20460;-66
2023/06/12 01:43:25;;;;;;;4.07;3.70;;;19.80;32.00;;;;;;5100720;28;20453;-66
2023/06/12 01:45:52;;;;;;;6.30;4.73;;;19.70;31.80;;;;;;5100685;28;20913;-66
2023/06/12 01:48:22;;;;;;;4.90;4.50;;;19.70;32.20;;;;;;5100586;28;20473;-67
2023/06/12 01:50:49;;;;;;;4.83;4.30;;;19.60;31.80;;;;;;5100233;28;20949;-66
2023/06/12 01:53:16;;;;;;;5.63;4.17;;;19.60;32.10;;;;;;5100713;28;20514;-67
2023/06/12 01:55:44;;;;;;;4.93;4.43;;;19.60;31.40;;;;;;5100689;28;20923;-67
2023/06/12 01:58:10;;;;;;;8.53;3.97;;;19.50;31.80;;;;;;5100388;28;20449;-67
2023/06/12 02:00:37;;;;;;;4.97;3.90;;;19.50;31.10;;;;;;5100106;28;20457;-66
2023/06/12 02:03:04;;;;;;;5.10;4.50;;;19.50;31.20;;;;;;5100659;28;20453;-65
2023/06/12 02:05:32;;;;;;;4.43;4.03;;;19.50;31.30;;;;;;5100431;28;20960;-66
2023/06/12 02:07:59;;;;;;;5.43;3.63;;;19.40;30.40;;;;;;5100584;28;20476;-66
2023/06/12 02:10:26;;;;;;;5.20;4.30;;;19.40;30.90;;;;;;5099313;28;20457;-66
2023/06/12 02:12:53;;;;;;;5.50;4.10;;;19.40;30.40;;;;;;5096376;28;20484;-66
2023/06/12 02:15:20;;;;;;;4.40;4.00;;;19.30;31.40;;;;;;5097463;28;20495;-66
2023/06/12 02:17:47;;;;;;;4.23;3.80;;;19.20;31.90;;;;;;5097471;28;20912;-66
2023/06/12 02:20:14;;;;;;;4.67;3.87;;;19.20;31.70;;;;;;5097249;28;20462;-66
2023/06/12 02:22:42;;;;;;;5.80;4.40;;;19.20;31.90;;;;;;5097783;28;20548;-66
2023/06/12 02:25:10;;;;;;;5.23;4.17;;;19.20;31.70;;;;;;5097159;28;20468;-66
2023/06/12 02:27:36;;;;;;;4.60;3.73;;;19.20;32.80;;;;;;5097321;28;20511;-66
2023/06/12 02:30:04;;;;;;;6.60;4.90;;;19.20;32.00;;;;;;5097247;28;20790;-66
2023/06/12 02:32:33;;;;;;;4.97;4.50;;;19.10;32.80;;;;;;5097293;28;20514;-66
2023/06/12 02:35:00;;;;;;;5.83;4.50;;;19.00;32.50;;;;;;5096576;28;20490;-66
2023/06/12 02:37:28;;;;;;;4.97;4.53;;;19.00;33.50;;;;;;5096899;28;20464;-67
2023/06/12 02:39:56;;;;;;;6.00;5.40;;;18.90;33.90;;;;;;5096994;28;20826;-66
2023/06/12 02:42:23;;;;;;;6.07;5.00;;;18.90;34.10;;;;;;5096880;28;20485;-66
2023/06/12 02:44:50;;;;;;;4.87;4.47;;;18.80;34.60;;;;;;5096564;28;20454;-65
2023/06/12 02:47:18;;;;;;;8.43;5.00;;;18.70;34.60;;;;;;5096754;28;20465;-67
2023/06/12 02:49:45;;;;;;;5.73;4.63;;;18.70;34.50;;;;;;5096509;28;20987;-67
2023/06/12 02:52:12;;;;;;;5.13;4.63;;;18.60;35.20;;;;;;5096552;28;20765;-66
2023/06/12 02:54:39;;;;;;;6.53;4.93;;;18.50;35.70;;;;;;5096434;28;20552;-66
2023/06/12 02:57:07;;;;;;;4.97;4.40;;;18.50;35.40;;;;;;5096543;28;20550;-67
2023/06/12 02:59:34;;;;;;;8.83;4.67;;;18.40;36.20;;;;;;5096265;28;20461;-67
2023/06/12 03:02:01;;;;;;;6.53;4.73;;;18.40;36.00;;;;;;5096600;28;20616;-66
2023/06/12 03:04:28;;;;;;;6.50;5.00;;;18.40;36.80;;;;;;5096350;28;20459;-66
2023/06/12 03:06:55;;;;;;;5.10;4.70;;;18.30;36.10;;;;;;5096220;28;20863;-65
2023/06/12 03:09:23;;;;;;;4.97;4.47;;;18.30;37.00;;;;;;5095940;28;20619;-65
2023/06/12 03:11:52;;;;;;;7.37;4.70;;;18.20;36.50;;;;;;5095954;28;20477;-66
2023/06/12 03:14:21;;;;;;;8.30;5.17;;;18.20;37.00;;;;;;5095896;28;20930;-65
2023/06/12 03:16:48;;;;;;;5.97;5.27;;;18.10;36.70;;;;;;5096203;28;20465;-65
2023/06/12 03:19:15;;;;;;;5.00;4.50;;;18.10;36.50;;;;;;5096604;28;20453;-66
2023/06/12 03:21:42;;;;;;;6.83;4.80;;;18.00;37.00;;;;;;5095798;28;20463;-65
2023/06/12 03:24:09;;;;;;;5.20;4.70;;;17.90;37.30;;;;;;5095577;28;20918;-65
2023/06/12 03:26:36;;;;;;;11.03;5.60;;;17.90;37.00;;;;;;5096012;28;20453;-66
2023/06/12 03:29:03;;;;;;;6.80;4.90;;;17.90;37.30;;;;;;5095460;28;20495;-66
2023/06/12 03:31:31;;;;;;;5.30;4.80;;;17.80;37.10;;;;;;5096142;28;20464;-66
2023/06/12 03:33:58;;;;;;;8.13;4.80;;;17.80;37.80;;;;;;5095637;28;20501;-66
2023/06/12 03:36:25;;;;;;;5.77;5.00;;;17.70;37.40;;;;;;5095613;28;20935;-66
2023/06/12 03:38:52;;;;;;;7.53;5.07;;;17.70;37.70;;;;;;5095718;28;20457;-66
2023/06/12 03:41:22;;;;;;;5.20;4.60;;;17.70;38.30;;;;;;5095631;28;20454;-66
2023/06/12 03:43:49;;;;;;;7.30;4.50;;;17.70;38.10;;;;;;5095474;28;20552;-67
2023/06/12 03:46:16;;;;;;;6.60;4.60;;;17.70;38.30;;;;;;5095577;28;20468;-66
2023/06/12 03:48:44;;;;;;;5.33;4.83;;;17.70;37.60;;;;;;5095521;28;20646;-66
2023/06/12 03:51:11;;;;;;;5.57;4.27;;;17.60;37.50;;;;;;5095599;28;20479;-66
2023/06/12 03:53:38;;;;;;;6.63;4.53;;;17.60;37.90;;;;;;5095625;28;20743;-66
2023/06/12 03:56:05;;;;;;;5.00;4.50;;;17.60;37.50;;;;;;5095458;28;20561;-66
2023/06/12 03:58:32;;;;;;;9.80;4.73;;;17.60;37.20;;;;;;5095049;28;20457;-66
2023/06/12 04:00:59;;;;;;;5.20;4.70;;;17.60;37.40;;;;;;5095393;28;20457;-66
2023/06/12 04:03:26;;;;;;;5.00;4.50;;;17.60;37.90;;;;;;5095030;28;20453;-66
2023/06/12 04:05:54;;;;;;;5.83;4.20;;;17.60;37.20;;;;;;5095551;28;20463;-66
2023/06/12 04:08:22;;;;;;;9.30;4.73;;;17.60;38.00;;;;;;5094729;28;20979;-66
2023/06/12 04:10:50;;;;;;;4.53;4.00;;;17.60;37.50;;;;;;5094990;28;20464;-67
2023/06/12 04:13:16;;;;;;;7.60;4.40;;;17.60;37.60;;;;;;5094880;28;20508;-66
2023/06/12 04:15:43;;;;;;;5.23;4.47;;;17.60;38.30;;;;;;5094855;28;20453;-66
2023/06/12 04:18:10;;;;;;;5.30;4.80;;;17.60;38.20;;;;;;5094648;28;20518;-66
2023/06/12 04:20:38;;;;;;;6.20;4.73;;;17.70;37.90;;;;;;5094737;28;20453;-66
2023/06/12 04:23:11;;;;;;;4.87;4.37;;;17.70;37.30;;;;;;5094854;28;20840;-66
2023/06/12 04:25:38;;;;;;;8.20;4.30;;;17.60;37.40;;;;;;5094599;28;20477;-66
2023/06/12 04:28:07;;;;;;;7.07;4.20;;;17.70;38.10;;;;;;5094729;28;20457;-66
2023/06/12 04:30:35;;;;;;;7.03;4.90;;;17.70;37.50;;;;;;5094697;28;20548;-66
2023/06/12 04:33:02;;;;;;;4.70;4.30;;;17.70;37.70;;;;;;5094704;28;20453;-66
2023/06/12 04:35:29;;;;;;;5.97;4.13;;;17.70;37.90;;;;;;5094015;28;20834;-66
2023/06/12 04:37:56;;;;;;;8.27;4.70;;;17.70;38.60;;;;;;5094128;28;20463;-66
2023/06/12 04:40:24;;;;;;;6.17;4.93;;;17.70;37.90;;;;;;5094345;28;20467;-66
2023/06/12 04:42:56;;;;;;;8.23;4.33;;;17.70;37.10;;;;;;5094483;28;20457;-67
2023/06/12 04:45:23;;;;;;;5.00;4.50;;;17.70;37.90;;;;;;5094545;28;20469;-67
2023/06/12 04:47:51;;;;;;;6.23;4.03;;;17.70;38.00;;;;;;5094248;28;20460;-67
2023/06/12 04:50:18;;;;;;;6.80;4.40;;;17.70;38.40;;;;;;5094388;28;20797;-67
2023/06/12 04:52:47;;;;;;;6.30;4.10;;;17.80;40.20;;;;;;5094433;28;20861;-67
2023/06/12 04:55:20;;;;;;;5.23;4.63;;;17.80;39.70;;;;;;5094267;28;20476;-67
2023/06/12 04:57:52;;;;;;;5.00;4.03;;;17.90;38.00;;;;;;5094219;28;20444;-65
2023/06/12 05:00:20;;;;;;;6.77;5.00;;;17.90;39.00;;;;;;5094592;28;20482;-66
2023/06/12 05:02:47;;;;;;;12.87;6.10;;;17.90;38.30;;;;;;5093887;28;20464;-66
2023/06/12 05:05:14;;;;;;;15.13;7.33;;;18.00;38.70;;;;;;5094147;28;20461;-66
2023/06/12 05:07:41;;;;;;;9.03;4.33;;;18.00;39.90;;;;;;5094036;28;20520;-66
2023/06/12 05:10:08;;;;;;;9.63;4.77;;;18.10;39.40;;;;;;5094563;28;20488;-66
2023/06/12 05:12:35;;;;;;;7.57;4.20;;;18.10;39.50;;;;;;5093984;28;20481;-66
2023/06/12 05:15:04;;;;;;;7.80;4.37;;;18.10;38.90;;;;;;5093964;28;20454;-65
2023/06/12 05:17:31;;;;;;;5.00;3.80;;;18.10;38.90;;;;;;5093856;28;20463;-66
2023/06/12 05:19:58;;;;;;;6.90;4.17;;;18.20;39.50;;;;;;5094153;28;20534;-65
2023/06/12 05:22:24;;;;;;;6.70;4.10;;;18.20;39.30;;;;;;5093656;28;20499;-65
2023/06/12 05:24:51;;;;;;;8.37;4.17;;;18.30;39.50;;;;;;5094112;28;20453;-65
2023/06/12 05:27:18;;;;;;;4.93;4.10;;;18.30;40.30;;;;;;5093735;28;20457;-65
2023/06/12 05:29:45;;;;;;;5.27;3.87;;;18.40;41.00;;;;;;5093648;28;20488;-65
2023/06/12 05:32:14;;;;;;;7.53;4.37;;;18.40;40.20;;;;;;5093923;28;20479;-65
2023/06/12 05:34:41;;;;;;;7.70;3.83;;;18.50;40.20;;;;;;5093735;28;20457;-65
2023/06/12 05:37:08;;;;;;;5.17;3.77;;;18.50;39.10;;;;;;5094168;28;20453;-66
2023/06/12 05:39:35;;;;;;;7.23;4.57;;;18.60;40.50;;;;;;5094370;28;20453;-66
2023/06/12 05:42:01;;;;;;;8.50;3.93;;;18.70;39.50;;;;;;5094305;28;20457;-66
2023/06/12 05:44:28;;;;;;;8.87;3.80;;;18.70;39.20;;;;;;5094082;28;20457;-67
2023/06/12 05:46:55;;;;;;;4.90;3.97;;;18.80;38.80;;;;;;5097400;28;20789;-66
2023/06/12 05:49:23;;;;;;;4.53;3.30;;;18.80;38.60;;;;;;5097681;28;20583;-66
2023/06/12 05:51:50;;;;;;;4.50;3.83;;;18.90;39.20;;;;;;5098107;28;20453;-66
2023/06/12 05:54:17;;;;;;;12.00;4.93;;;18.90;37.90;;;;;;5097461;28;20921;-66
2023/06/12 05:56:44;;;;;;;8.57;4.90;;;19.00;38.50;;;;;;5097603;28;20554;-66
2023/06/12 05:59:11;;;;;;;5.50;3.90;;;19.00;38.20;;;;;;5097857;28;20449;-66
2023/06/12 06:01:37;;;;;;;7.20;3.00;;;19.10;38.40;;;;;;5097186;28;20797;-66
2023/06/12 06:04:05;;;;;;;7.30;4.20;;;19.10;38.70;;;;;;5097403;28;20463;-66
2023/06/12 06:06:34;;;;;;;9.07;4.57;;;19.20;38.10;;;;;;5097220;28;20517;-66
2023/06/12 06:09:03;;;;;;;8.10;4.57;;;19.20;38.50;;;;;;5097073;28;20488;-66
2023/06/12 06:11:30;;;;;;;6.70;5.00;;;19.30;40.10;;;;;;5097304;28;20453;-66
2023/06/12 06:13:58;;;;;;;5.87;4.20;;;19.30;38.70;;;;;;5097066;28;20446;-67
2023/06/12 06:16:24;;;;;;;7.07;3.90;;;19.30;38.60;;;;;;5097218;28;20522;-67
2023/06/12 06:18:51;;;;;;;45.47;35.77;;;19.40;39.40;;;;;;5097094;28;20836;-66
2023/06/12 06:21:18;;;;;;;9.20;6.60;;;19.40;39.00;;;;;;5096536;28;20548;-66
2023/06/12 06:23:46;;;;;;;9.33;3.87;;;19.50;39.20;;;;;;5096892;28;20453;-66
2023/06/12 06:26:13;;;;;;;6.23;4.13;;;19.50;38.70;;;;;;5096749;28;20500;-66
2023/06/12 06:28:40;;;;;;;4.80;4.00;;;19.60;39.20;;;;;;5096657;28;20453;-66
2023/06/12 06:31:07;;;;;;;8.00;4.23;;;19.60;39.10;;;;;;5096913;28;20782;-66
2023/06/12 06:33:34;;;;;;;5.33;4.00;;;19.70;39.80;;;;;;5096724;28;20536;-66
2023/06/12 06:36:01;;;;;;;11.40;3.83;;;19.80;39.40;;;;;;5096449;28;20495;-66
2023/06/12 06:38:28;;;;;;;5.03;4.37;;;19.80;39.20;;;;;;5096635;28;20926;-65
2023/06/12 06:40:56;;;;;;;8.77;4.57;;;19.90;39.80;;;;;;5096560;28;20449;-66
2023/06/12 06:43:23;;;;;;;25.23;16.20;;;19.90;39.70;;;;;;5095850;28;20504;-66
2023/06/12 06:45:50;;;;;;;17.20;12.50;;;20.00;40.00;;;;;;5096197;28;20461;-66
2023/06/12 06:48:17;;;;;;;8.33;5.50;;;20.00;39.80;;;;;;5096117;28;20467;-65
2023/06/12 06:50:44;;;;;;;6.77;4.30;;;20.10;39.80;;;;;;5096267;28;20508;-65
2023/06/12 06:53:11;;;;;;;7.47;4.57;;;20.20;40.10;;;;;;5096584;28;20789;-66
2023/06/12 06:55:38;;;;;;;10.47;4.70;;;20.30;40.20;;;;;;5096215;28;20508;-65
2023/06/12 06:58:06;;;;;;;8.17;4.23;;;20.30;39.50;;;;;;5095413;28;20454;-66
2023/06/12 07:00:33;;;;;;;6.90;4.57;;;20.40;39.50;;;;;;5096318;28;20742;-65
2023/06/12 07:03:00;;;;;;;8.10;4.83;;;20.50;39.50;;;;;;5096027;28;20460;-65
2023/06/12 07:05:28;;;;;;;9.33;4.77;;;20.50;40.40;;;;;;5096062;28;20557;-65
2023/06/12 07:07:55;;;;;;;8.30;4.00;;;20.60;39.70;;;;;;5096458;28;20472;-66
2023/06/12 07:10:22;;;;;;;4.90;4.33;;;20.60;39.50;;;;;;5096237;28;20801;-65
2023/06/12 07:12:56;;;;;;;12.47;3.70;;;20.70;39.40;;;;;;5096089;28;20492;-65
2023/06/12 07:15:25;;;;;;;6.10;3.47;;;20.80;39.60;;;;;;5096331;28;20442;-66
2023/06/12 07:17:52;;;;;;;6.73;3.80;;;20.80;39.70;;;;;;5096416;28;20553;-66
2023/06/12 07:20:19;;;;;;;9.00;4.23;;;20.90;39.20;;;;;;5096041;28;20453;-66
2023/06/12 07:22:46;;;;;;;9.03;4.03;;;20.90;39.40;;;;;;5096113;28;20457;-66
2023/06/12 07:25:12;;;;;;;4.20;3.60;;;21.00;39.10;;;;;;5096498;28;20493;-66
2023/06/12 07:27:39;;;;;;;4.23;3.83;;;21.00;38.70;;;;;;5095830;28;20914;-66
2023/06/12 07:30:08;;;;;;;6.20;3.93;;;21.10;39.60;;;;;;5095752;28;20495;-66
2023/06/12 07:32:37;;;;;;;9.33;4.83;;;21.30;39.60;;;;;;5095340;28;20518;-66
2023/06/12 07:35:04;;;;;;;5.17;3.50;;;21.30;37.90;;;;;;5095635;28;20540;-66
2023/06/12 07:37:34;;;;;;;5.90;4.00;;;21.40;38.50;;;;;;5095544;28;20909;-66
2023/06/12 07:40:02;;;;;;;6.27;3.80;;;21.50;36.80;;;;;;5095504;28;20434;-66
2023/06/12 07:42:29;;;;;;;5.53;3.77;;;21.60;37.00;;;;;;5095569;28;20449;-66
2023/06/12 07:44:56;;;;;;;5.53;3.80;;;21.80;35.50;;;;;;5095802;28;20453;-66
2023/06/12 07:47:23;;;;;;;5.40;3.87;;;21.90;35.80;;;;;;5095177;28;20859;-66
2023/06/12 07:49:51;;;;;;;6.30;4.00;;;22.00;35.00;;;;;;5095097;28;20572;-66
2023/06/12 07:52:18;;;;;;;5.67;3.77;;;22.10;35.60;;;;;;5095086;28;20467;-66
2023/06/12 07:54:45;;;;;;;5.30;3.90;;;22.10;34.40;;;;;;5095237;28;20453;-66
2023/06/12 07:57:11;;;;;;;8.03;4.30;;;22.20;33.40;;;;;;5095272;28;20559;-66
2023/06/12 07:59:38;;;;;;;9.47;3.57;;;22.30;33.70;;;;;;5095079;28;20548;-66
2023/06/12 08:02:06;;;;;;;9.30;3.57;;;22.40;32.70;;;;;;5095233;28;20964;-66
2023/06/12 08:04:33;;;;;;;3.93;3.63;;;22.60;31.60;;;;;;5095580;28;20549;-66
2023/06/12 08:07:03;;;;;;;7.83;3.57;;;22.60;31.40;;;;;;5095488;28;20970;-66
2023/06/12 08:09:30;;;;;;;6.43;3.47;;;22.60;32.00;;;;;;5094408;28;20477;-66
2023/06/12 08:11:57;;;;;;;3.87;3.57;;;22.70;31.10;;;;;;5094699;28;20489;-66
2023/06/12 08:14:24;;;;;;;5.73;3.33;;;22.70;30.90;;;;;;5095123;28;20457;-66
2023/06/12 08:16:52;;;;;;;9.90;3.40;;;22.70;29.90;;;;;;5095019;28;20479;-66
2023/06/12 08:19:19;;;;;;;11.97;3.70;;;22.80;30.10;;;;;;5094622;28;20554;-66
2023/06/12 08:21:46;;;;;;;3.60;3.30;;;22.80;28.90;;;;;;5094769;28;20469;-66
2023/06/12 08:24:16;;;;;;;6.70;3.90;;;22.90;29.70;;;;;;5094304;28;20940;-66
2023/06/12 08:26:43;;;;;;;3.57;3.20;;;23.00;28.20;;;;;;5094130;28;20874;-66
2023/06/12 08:29:10;;;;;;;18.77;4.87;;;23.10;27.40;;;;;;5094452;28;20449;-66
2023/06/12 08:31:37;;;;;;;5.50;3.53;;;23.20;27.20;;;;;;5094513;28;20500;-66
2023/06/12 08:34:04;;;;;;;10.20;3.80;;;23.20;27.60;;;;;;5094659;28;20453;-66
2023/06/12 08:36:31;;;;;;;20.07;4.20;;;23.20;28.20;;;;;;5094818;28;20463;-66
2023/06/12 08:38:58;;;;;;;11.50;5.27;;;23.30;27.30;;;;;;5094559;28;20868;-65
2023/06/12 08:41:28;;;;;;;5.80;3.60;;;23.30;27.60;;;;;;5094124;28;20449;-65
2023/06/12 08:43:59;;;;;;;5.53;3.40;;;23.30;26.80;;;;;;5094093;28;20460;-65
2023/06/12 08:46:30;;;;;;;4.13;3.40;;;23.40;27.80;;;;;;5094798;28;20457;-65
2023/06/12 08:48:59;;;;;;;4.10;3.80;;;23.40;27.40;;;;;;5094684;28;20437;-65
2023/06/12 08:51:26;;;;;;;4.27;3.83;;;23.50;27.50;;;;;;5094410;28;20492;-65
2023/06/12 08:53:54;;;;;;;7.07;3.57;;;23.60;28.00;;;;;;5094050;28;20489;-65
2023/06/12 08:56:22;;;;;;;3.67;3.37;;;23.60;27.30;;;;;;5094479;28;20508;-65
2023/06/12 08:58:50;;;;;;;10.63;4.27;;;23.70;26.90;;;;;;5094119;28;20482;-65
2023/06/12 09:01:18;;;;;;;12.80;3.50;;;23.70;26.30;;;;;;5093916;28;20464;-65
2023/06/12 09:03:49;;;;;;;6.30;4.00;;;23.70;26.40;;;;;;5094325;28;20878;-65
2023/06/12 09:06:18;;;;;;;5.60;3.43;;;23.70;26.50;;;;;;5094030;28;20448;-65
2023/06/12 09:08:45;;;;;;;7.33;3.60;;;23.70;26.30;;;;;;5094145;28;20850;-65
2023/06/12 09:11:12;;;;;;;3.63;3.33;;;23.80;26.30;;;;;;5093962;28;20572;-65
2023/06/12 09:13:43;;;;;;;5.00;3.63;;;23.80;26.80;;;;;;5093770;28;20485;-65
2023/06/12 09:16:15;;;;;;;6.10;4.03;;;23.90;26.70;;;;;;5094087;28;20608;-65
2023/06/12 09:18:52;;;;;;;4.43;3.47;;;24.00;26.90;;;;;;5094053;28;20459;-65
2023/06/12 09:21:23;;;;;;;4.40;4.00;;;24.00;27.00;;;;;;5096597;28;20449;-65
2023/06/12 09:23:51;;;;;;;6.10;4.40;;;24.10;27.10;;;;;;5098442;28;20433;-65
2023/06/12 09:26:21;;;;;;;5.30;3.40;;;24.20;26.80;;;;;;5097997;28;20957;-65
2023/06/12 09:28:51;;;;;;;4.60;3.60;;;24.30;27.30;;;;;;5097754;28;20770;-65
2023/06/12 09:31:19;;;;;;;5.43;4.17;;;24.30;26.40;;;;;;5097926;28;20584;-65
2023/06/12 09:33:47;;;;;;;5.87;4.17;;;24.40;27.30;;;;;;5098198;28;20534;-65
2023/06/12 09:36:14;;;;;;;5.60;3.83;;;24.40;26.90;;;;;;5097764;28;20539;-65
2023/06/12 09:38:41;;;;;;;5.40;4.87;;;24.50;26.30;;;;;;5097622;28;20463;-65
2023/06/12 09:41:10;;;;;;;8.93;4.00;;;24.50;26.50;;;;;;5097508;28;20453;-65
2023/06/12 09:43:37;;;;;;;7.30;3.50;;;24.50;27.40;;;;;;5097824;28;20492;-65
2023/06/12 09:46:08;;;;;;;3.83;3.53;;;24.60;26.90;;;;;;5097562;28;20467;-65
2023/06/12 09:48:37;;;;;;;6.50;3.63;;;24.60;26.90;;;;;;5097548;28;20935;-65
2023/06/12 09:51:06;;;;;;;6.03;3.53;;;24.70;27.00;;;;;;5097347;28;20856;-65
2023/06/12 09:53:37;;;;;;;4.23;3.77;;;24.70;27.40;;;;;;5097679;28;20457;-65
2023/06/12 09:56:06;;;;;;;5.90;3.37;;;24.80;27.30;;;;;;5097405;28;20457;-66
2023/06/12 09:58:36;;;;;;;7.33;3.70;;;24.90;26.20;;;;;;5097383;28;20457;-66
2023/06/12 10:01:05;;;;;;;4.30;3.63;;;25.00;26.40;;;;;;5097402;28;20506;-66
2023/06/12 10:03:38;;;;;;;5.37;3.93;;;25.00;26.50;;;;;;5097572;28;20484;-66
2023/06/12 10:06:07;;;;;;;5.70;3.97;;;25.00;26.20;;;;;;5097094;28;20444;-66
2023/06/12 10:08:35;;;;;;;5.30;3.37;;;25.10;26.70;;;;;;5097144;28;20522;-66
2023/06/12 10:11:03;;;;;;;4.70;3.87;;;25.10;26.60;;;;;;5097421;28;20499;-66
2023/06/12 10:13:32;;;;;;;4.90;3.87;;;25.10;26.50;;;;;;5096869;28;20572;-66
2023/06/12 10:16:00;;;;;;;8.83;3.57;;;25.20;27.30;;;;;;5096687;28;20889;-65
2023/06/12 10:18:28;;;;;;;7.13;3.83;;;25.20;27.00;;;;;;5097206;28;20481;-65
2023/06/12 10:20:57;;;;;;;5.03;4.10;;;25.30;26.40;;;;;;5097243;28;20804;-65
2023/06/12 10:23:25;;;;;;;6.23;3.50;;;25.30;27.00;;;;;;5097076;28;20911;-66
2023/06/12 10:25:53;;;;;;;5.37;3.83;;;25.40;27.40;;;;;;5097114;28;20778;-65
2023/06/12 10:28:20;;;;;;;5.93;4.23;;;25.50;28.30;;;;;;5097163;28;20470;-66
2023/06/12 10:31:10;;;;;;;6.23;4.13;;;25.50;28.00;;;;;;5096746;28;20481;-66
2023/06/12 10:33:37;;;;;;;11.10;4.40;;;25.60;28.00;;;;;;5095586;28;20457;-65
2023/06/12 10:36:12;;;;;;;10.03;4.43;;;25.70;28.90;;;;;;5096541;28;20453;-66
2023/06/12 10:38:45;;;;;;;5.23;4.50;;;25.90;29.30;;;;;;5096717;28;20591;-66
2023/06/12 10:41:12;;;;;;;4.60;4.20;;;26.00;28.90;;;;;;5096599;28;20453;-67
2023/06/12 10:43:40;;;;;;;4.40;3.97;;;26.20;29.10;;;;;;5096323;28;20453;-66
2023/06/12 10:46:12;;;;;;;5.90;4.20;;;26.30;28.00;;;;;;5095971;28;20468;-64
2023/06/12 10:48:47;;;;;;;5.00;4.10;;;26.40;28.70;;;;;;5096586;28;20452;-65
2023/06/12 10:51:15;;;;;;;5.03;4.27;;;26.50;28.50;;;;;;5096133;28;20552;-65
2023/06/12 10:53:44;;;;;;;6.80;5.00;;;26.50;28.10;;;;;;5096495;28;20463;-66
2023/06/12 10:56:11;;;;;;;7.97;3.93;;;26.50;28.20;;;;;;5096489;28;20792;-66
2023/06/12 10:58:39;;;;;;;5.63;4.10;;;26.50;28.30;;;;;;5096144;28;20461;-65
2023/06/12 11:01:11;;;;;;;8.93;4.17;;;26.50;27.80;;;;;;5096089;28;20457;-65
2023/06/12 11:03:42;;;;;;;4.07;3.63;;;26.40;27.80;;;;;;5096353;28;20441;-65
2023/06/12 11:06:15;;;;;;;5.93;5.33;;;26.30;27.80;;;;;;5096402;28;20445;-66
2023/06/12 11:08:45;;;;;;;7.90;5.47;;;26.20;28.70;;;;;;5096368;28;20481;-65
2023/06/12 11:11:13;;;;;;;5.20;4.70;;;26.20;28.60;;;;;;5095997;28;20493;-65
2023/06/12 11:13:40;;;;;;;4.80;4.30;;;26.20;28.60;;;;;;5096309;28;20449;-65
2023/06/12 11:16:07;;;;;;;12.20;11.00;;;26.30;28.00;;;;;;5095869;28;20519;-66
2023/06/12 11:18:34;;;;;;;5.90;5.33;;;26.50;28.40;;;;;;5095991;28;20812;-66
2023/06/12 11:21:01;;;;;;;4.70;3.90;;;26.90;28.00;;;;;;5095957;28;20524;-66
2023/06/12 11:23:29;;;;;;;4.73;4.33;;;27.20;26.50;;;;;;5096185;28;20471;-66
2023/06/12 11:25:59;;;;;;;5.00;4.60;;;27.40;26.60;;;;;;5095367;28;20994;-66
2023/06/12 11:28:29;;;;;;;4.17;3.80;;;27.40;26.10;;;;;;5095550;28;20457;-66
2023/06/12 11:30:56;;;;;;;5.10;4.33;;;27.30;25.90;;;;;;5095494;28;20848;-66
2023/06/12 11:33:23;;;;;;;6.53;4.40;;;27.20;26.50;;;;;;5095726;28;20453;-65
2023/06/12 11:35:52;;;;;;;8.23;3.97;;;27.10;26.10;;;;;;5095287;28;20768;-65
2023/06/12 11:38:21;;;;;;;5.20;3.97;;;27.00;26.30;;;;;;5095852;28;20988;-66
2023/06/12 11:40:49;;;;;;;9.47;7.77;;;26.90;26.60;;;;;;5095749;28;20536;-65
2023/06/12 11:43:18;;;;;;;10.03;9.13;;;26.80;26.00;;;;;;5095481;28;20783;-65
2023/06/12 11:45:46;;;;;;;5.03;4.33;;;26.60;26.60;;;;;;5095519;28;20541;-65
2023/06/12 11:48:14;;;;;;;4.60;4.20;;;27.00;26.70;;;;;;5094922;28;20493;-65
2023/06/12 11:50:42;;;;;;;6.63;4.53;;;28.00;25.20;;;;;;5094960;28;20513;-65
2023/06/12 11:53:09;;;;;;;6.70;4.97;;;28.50;24.50;;;;;;5095385;28;20536;-65
2023/06/12 11:55:36;;;;;;;4.83;4.33;;;28.60;24.40;;;;;;5095279;28;20653;-65
2023/06/12 11:58:03;;;;;;;11.63;4.57;;;28.50;23.90;;;;;;5095160;28;20518;-65
2023/06/12 12:00:34;;;;;;;13.53;4.53;;;28.30;24.30;;;;;;5095678;28;20458;-65
2023/06/12 12:03:03;;;;;;;4.23;3.83;;;28.20;24.10;;;;;;5094946;28;20890;-65
2023/06/12 12:05:35;;;;;;;5.00;4.50;;;28.10;24.30;;;;;;5094899;28;20453;-65
2023/06/12 12:08:04;;;;;;;8.60;4.67;;;28.90;24.90;;;;;;5094981;28;20461;-65
2023/06/12 12:10:33;;;;;;;3.90;3.60;;;30.20;22.30;;;;;;5094717;28;20457;-65
2023/06/12 12:13:01;;;;;;;4.73;4.33;;;31.40;21.00;;;;;;5094809;28;20492;-65
2023/06/12 12:15:29;;;;;;;4.73;3.90;;;31.80;19.50;;;;;;5094545;28;20928;-65
2023/06/12 12:17:57;;;;;;;8.60;6.80;;;31.50;19.10;;;;;;5094865;28;20467;-65
2023/06/12 12:20:26;;;;;;;4.30;3.90;;;30.90;19.00;;;;;;5094924;28;20464;-65
2023/06/12 12:22:54;;;;;;;4.27;3.87;;;30.30;19.00;;;;;;5094460;28;20483;-65
2023/06/12 12:25:22;;;;;;;5.10;3.83;;;29.90;19.10;;;;;;5094888;28;20464;-65
2023/06/12 12:27:51;;;;;;;10.30;5.40;;;29.90;18.80;;;;;;5094594;28;20453;-65
2023/06/12 12:30:18;;;;;;;3.80;3.50;;;30.40;20.20;;;;;;5094102;28;20457;-65
2023/06/12 12:32:46;;;;;;;6.13;4.07;;;31.40;19.30;;;;;;5094308;28;20785;-65
2023/06/12 12:35:15;;;;;;;4.60;4.00;;;32.10;19.30;;;;;;5094547;28;20449;-65
2023/06/12 12:37:42;;;;;;;4.00;3.70;;;32.70;18.40;;;;;;5094543;28;20457;-66
2023/06/12 12:40:10;;;;;;;7.00;6.30;;;32.80;17.40;;;;;;5094521;28;20536;-66
2023/06/12 12:42:38;;;;;;;4.23;3.83;;;32.70;17.60;;;;;;5094475;28;20449;-66
2023/06/12 12:45:07;;;;;;;5.63;4.13;;;32.80;16.90;;;;;;5094306;28;20453;-66
2023/06/12 12:47:35;;;;;;;5.17;4.27;;;32.80;16.70;;;;;;5094311;28;20557;-66
2023/06/12 12:50:03;;;;;;;5.43;3.90;;;32.30;16.50;;;;;;5094057;28;20494;-66